createdAt,value
2022-08-11T00:00:05.657Z,49.9
2022-08-11T00:01:05.763Z,49.6
2022-08-11T00:02:05.664Z,49.5
2022-08-11T00:03:05.771Z,49.7
2022-08-11T00:04:05.679Z,49.8
2022-08-11T00:05:05.696Z,49.7
2022-08-11T00:06:05.807Z,49.6
2022-08-11T00:07:05.621Z,49.4
2022-08-11T00:08:05.706Z,49.1
2022-08-11T00:09:05.713Z,49.5
2022-08-11T00:10:05.614Z,49.4
2022-08-11T00:11:05.723Z,49.6
2022-08-11T00:12:05.736Z,50
2022-08-11T00:13:05.640Z,50.6
2022-08-11T00:14:05.624Z,50.3
2022-08-11T00:15:05.751Z,50.4
2022-08-11T00:16:05.660Z,50.3
2022-08-11T00:17:05.656Z,49.9
2022-08-11T00:18:05.668Z,50.2
2022-08-11T00:19:05.629Z,50.6
2022-08-11T00:20:12.424Z,50.6
2022-08-11T00:21:05.683Z,50.6
2022-08-11T00:22:06.487Z,50.5
2022-08-11T00:23:05.632Z,50.3
2022-08-11T00:24:05.705Z,50.3
2022-08-11T00:25:05.723Z,50.1
2022-08-11T00:26:05.716Z,49.9
2022-08-11T00:27:05.725Z,49.9
2022-08-11T00:28:05.724Z,50.2
2022-08-11T00:29:05.733Z,49.9
2022-08-11T00:30:05.686Z,49.6
2022-08-11T00:31:05.644Z,49.6
2022-08-11T00:32:05.625Z,49.8
2022-08-11T00:33:05.663Z,50.1
2022-08-11T00:34:05.769Z,50.4
2022-08-11T00:35:52.102Z,50.6
2022-08-11T00:36:05.713Z,50.1
2022-08-11T00:37:05.690Z,50.5
2022-08-11T00:38:05.690Z,50.6
2022-08-11T00:39:05.701Z,50.8
2022-08-11T00:40:05.644Z,51
2022-08-11T00:41:05.722Z,51.2
2022-08-11T00:42:05.721Z,50.8
2022-08-11T00:43:05.719Z,50.6
2022-08-11T00:44:05.646Z,51.2
2022-08-11T00:45:05.635Z,51.1
2022-08-11T00:46:05.653Z,50.6
2022-08-11T00:47:05.659Z,50.9
2022-08-11T00:48:05.713Z,50.8
2022-08-11T00:49:05.636Z,50.4
2022-08-11T00:50:06.003Z,50.9
2022-08-11T00:51:05.670Z,50.4
2022-08-11T00:52:06.494Z,50.8
2022-08-11T00:53:05.698Z,51
2022-08-11T00:54:05.632Z,50.9
2022-08-11T00:55:05.698Z,51.2
2022-08-11T00:56:05.650Z,51.1
2022-08-11T00:57:09.243Z,50.7
2022-08-11T00:58:05.740Z,51.2
2022-08-11T00:59:05.727Z,51
2022-08-11T01:00:05.957Z,51.4
2022-08-11T01:01:05.727Z,51
2022-08-11T01:02:05.656Z,51.4
2022-08-11T01:03:05.647Z,51.4
2022-08-11T01:04:05.736Z,51.4
2022-08-11T01:05:05.635Z,51.4
2022-08-11T01:06:07.952Z,51.5
2022-08-11T01:07:05.691Z,52
2022-08-11T01:08:05.684Z,51.6
2022-08-11T01:09:05.708Z,51.9
2022-08-11T01:10:07.417Z,52.1
2022-08-11T01:11:05.714Z,52.1
2022-08-11T01:12:05.725Z,52.2
2022-08-11T01:13:08.351Z,52.2
2022-08-11T01:14:05.641Z,52.4
2022-08-11T01:15:05.654Z,52.1
2022-08-11T01:16:05.641Z,52.3
2022-08-11T01:17:05.640Z,52.3
2022-08-11T01:18:05.729Z,53.2
2022-08-11T01:19:05.655Z,52.1
2022-08-11T01:20:38.752Z,52.8
2022-08-11T01:21:05.650Z,53.1
2022-08-11T01:22:05.641Z,52.8
2022-08-11T01:23:07.353Z,52.4
2022-08-11T01:24:05.637Z,52
2022-08-11T01:25:05.732Z,52.6
2022-08-11T01:26:05.659Z,51.9
2022-08-11T01:27:05.704Z,51.8
2022-08-11T01:28:05.712Z,52.1
2022-08-11T01:29:05.649Z,51.9
2022-08-11T01:30:05.726Z,51.9
2022-08-11T01:31:05.742Z,51.9
2022-08-11T01:32:05.723Z,52.4
2022-08-11T01:33:05.670Z,52.2
2022-08-11T01:34:05.743Z,51.6
2022-08-11T01:35:05.746Z,51.3
2022-08-11T01:36:05.653Z,51.5
2022-08-11T01:37:05.766Z,51.9
2022-08-11T01:38:05.671Z,51.9
2022-08-11T01:39:05.780Z,52.1
2022-08-11T01:40:05.651Z,52
2022-08-11T01:41:05.663Z,51.8
2022-08-11T01:42:05.647Z,51.8
2022-08-11T01:43:05.651Z,52.6
2022-08-11T01:44:05.652Z,52.6
2022-08-11T01:45:05.716Z,52.5
2022-08-11T01:46:05.716Z,52.8
2022-08-11T01:47:05.633Z,52.3
2022-08-11T01:48:05.726Z,52.2
2022-08-11T01:50:09.808Z,52.9
2022-08-11T01:51:05.750Z,52.6
2022-08-11T01:52:05.637Z,52.4
2022-08-11T01:53:05.768Z,52.3
2022-08-11T01:54:05.670Z,52.3
2022-08-11T01:55:05.652Z,52
2022-08-11T01:56:05.668Z,51.6
2022-08-11T01:57:05.634Z,52
2022-08-11T01:58:05.721Z,52.6
2022-08-11T01:59:05.665Z,52.4
2022-08-11T02:00:05.720Z,53.2
2022-08-11T02:01:05.960Z,52.6
2022-08-11T02:02:05.716Z,52.9
2022-08-11T02:03:05.722Z,51.9
2022-08-11T02:04:05.738Z,52.3
2022-08-11T02:05:05.747Z,52
2022-08-11T02:06:05.744Z,52.7
2022-08-11T02:07:09.042Z,52.9
2022-08-11T02:08:05.764Z,52.2
2022-08-11T02:09:05.649Z,52.9
2022-08-11T02:10:05.640Z,53
2022-08-11T02:11:05.670Z,52.5
2022-08-11T02:12:05.677Z,52.5
2022-08-11T02:13:05.635Z,52.5
2022-08-11T02:14:05.729Z,52.2
2022-08-11T02:15:05.887Z,52.5
2022-08-11T02:16:05.707Z,52.1
2022-08-11T02:17:05.711Z,52.3
2022-08-11T02:18:05.713Z,52.2
2022-08-11T02:19:05.726Z,52.5
2022-08-11T02:20:05.643Z,53.1
2022-08-11T02:21:05.745Z,52
2022-08-11T02:22:05.663Z,51.8
2022-08-11T02:23:05.673Z,51.8
2022-08-11T02:24:08.001Z,52.7
2022-08-11T02:25:05.900Z,51.9
2022-08-11T02:26:05.777Z,52.1
2022-08-11T02:27:05.673Z,51.9
2022-08-11T02:28:05.787Z,51.9
2022-08-11T02:29:05.678Z,51.8
2022-08-11T02:30:05.663Z,52
2022-08-11T02:31:05.698Z,52.2
2022-08-11T02:32:28.623Z,52.1
2022-08-11T02:33:05.718Z,52.1
2022-08-11T02:34:05.663Z,52.3
2022-08-11T02:35:05.732Z,52.5
2022-08-11T02:36:05.660Z,52.3
2022-08-11T02:37:05.664Z,52.2
2022-08-11T02:38:05.762Z,52.1
2022-08-11T02:39:05.766Z,52.2
2022-08-11T02:40:05.737Z,52.4
2022-08-11T02:41:05.667Z,52.1
2022-08-11T02:42:05.777Z,51.9
2022-08-11T02:43:05.681Z,52.2
2022-08-11T02:44:05.664Z,51.5
2022-08-11T02:45:05.687Z,51.9
2022-08-11T02:46:05.657Z,52.2
2022-08-11T02:47:05.688Z,52
2022-08-11T02:48:05.678Z,51.8
2022-08-11T02:49:05.832Z,51.9
2022-08-11T02:50:07.319Z,51.8
2022-08-11T02:51:05.679Z,51.7
2022-08-11T02:52:05.662Z,51.6
2022-08-11T02:53:05.747Z,51.3
2022-08-11T02:54:05.847Z,51.3
2022-08-11T02:55:05.762Z,51.4
2022-08-11T02:56:05.774Z,51.4
2022-08-11T02:57:05.769Z,51.8
2022-08-11T02:58:05.777Z,51.4
2022-08-11T02:59:05.675Z,51.2
2022-08-11T03:00:05.653Z,51.3
2022-08-11T03:01:05.969Z,51.7
2022-08-11T03:02:05.736Z,52.1
2022-08-11T03:03:05.733Z,52.3
2022-08-11T03:04:05.702Z,52.3
2022-08-11T03:05:05.715Z,52.3
2022-08-11T03:06:05.649Z,52.6
2022-08-11T03:07:05.729Z,52.4
2022-08-11T03:08:05.732Z,52.6
2022-08-11T03:09:05.751Z,52
2022-08-11T03:10:05.752Z,52.8
2022-08-11T03:11:05.753Z,51.8
2022-08-11T03:12:05.688Z,51.6
2022-08-11T03:13:05.668Z,51.9
2022-08-11T03:14:05.700Z,52.4
2022-08-11T03:15:05.677Z,52.7
2022-08-11T03:16:05.788Z,52.2
2022-08-11T03:17:05.791Z,52.3
2022-08-11T03:18:05.717Z,52.7
2022-08-11T03:19:05.709Z,52.6
2022-08-11T03:20:05.685Z,53.1
2022-08-11T03:21:05.714Z,52.5
2022-08-11T03:22:06.668Z,52.2
2022-08-11T03:23:05.726Z,52.3
2022-08-11T03:24:05.750Z,52.9
2022-08-11T03:25:08.721Z,52.7
2022-08-11T03:26:05.754Z,52.8
2022-08-11T03:27:05.699Z,52.5
2022-08-11T03:28:05.681Z,52.7
2022-08-11T03:29:05.686Z,52.9
2022-08-11T03:30:05.674Z,53.1
2022-08-11T03:31:05.745Z,53
2022-08-11T03:32:05.677Z,53.1
2022-08-11T03:33:05.666Z,53.1
2022-08-11T03:34:07.644Z,53.1
2022-08-11T03:35:05.672Z,52.7
2022-08-11T03:36:05.747Z,53.1
2022-08-11T03:37:17.702Z,51.8
2022-08-11T03:38:05.829Z,52.9
2022-08-11T03:39:05.680Z,52.7
2022-08-11T03:40:05.829Z,53.2
2022-08-11T03:41:05.736Z,53.2
2022-08-11T03:42:08.461Z,53.3
2022-08-11T03:43:05.772Z,53.3
2022-08-11T03:44:05.725Z,53.1
2022-08-11T03:45:05.764Z,53.1
2022-08-11T03:46:05.800Z,52.7
2022-08-11T03:47:05.873Z,52.9
2022-08-11T03:48:05.778Z,52.9
2022-08-11T03:49:05.757Z,52.7
2022-08-11T03:50:05.822Z,52.7
2022-08-11T03:51:05.923Z,52.6
2022-08-11T03:52:06.031Z,52.6
2022-08-11T03:53:05.714Z,52.7
2022-08-11T03:54:05.714Z,53.2
2022-08-11T03:55:05.723Z,52.9
2022-08-11T03:56:05.737Z,53.3
2022-08-11T03:57:05.688Z,53.4
2022-08-11T03:58:05.689Z,52.9
2022-08-11T03:59:05.742Z,53.6
2022-08-11T04:00:05.692Z,53.3
2022-08-11T04:01:05.855Z,53.6
2022-08-11T04:02:05.773Z,53.4
2022-08-11T04:03:05.681Z,53.5
2022-08-11T04:04:05.673Z,53.2
2022-08-11T04:05:05.788Z,53.1
2022-08-11T04:06:05.751Z,53.3
2022-08-11T04:07:05.699Z,53.9
2022-08-11T04:08:05.685Z,53.8
2022-08-11T04:09:05.680Z,53.6
2022-08-11T04:10:05.668Z,53.7
2022-08-11T04:11:05.668Z,53.7
2022-08-11T04:12:05.745Z,53.5
2022-08-11T04:13:05.841Z,53.5
2022-08-11T04:14:05.669Z,53.2
2022-08-11T04:15:05.753Z,53.3
2022-08-11T04:16:12.087Z,53.2
2022-08-11T04:17:05.665Z,53.6
2022-08-11T04:18:05.781Z,54.1
2022-08-11T04:19:05.789Z,53.8
2022-08-11T04:20:05.759Z,53.6
2022-08-11T04:21:05.690Z,52.7
2022-08-11T04:22:05.702Z,53.1
2022-08-11T04:23:05.697Z,53.3
2022-08-11T04:24:36.861Z,53.7
2022-08-11T04:25:05.689Z,53.8
2022-08-11T04:26:16.206Z,54.5
2022-08-11T04:27:05.837Z,54.4
2022-08-11T04:28:05.743Z,54
2022-08-11T04:29:09.618Z,54.1
2022-08-11T04:30:05.928Z,54
2022-08-11T04:31:05.792Z,54.2
2022-08-11T04:32:05.752Z,54.7
2022-08-11T04:33:05.774Z,54.4
2022-08-11T04:34:05.778Z,54.5
2022-08-11T04:35:05.694Z,54.6
2022-08-11T04:36:05.800Z,54.8
2022-08-11T04:37:05.684Z,54.2
2022-08-11T04:38:05.664Z,54.4
2022-08-11T04:39:05.702Z,54.1
2022-08-11T04:40:05.815Z,54.5
2022-08-11T04:41:05.815Z,54.3
2022-08-11T04:42:05.721Z,54.6
2022-08-11T04:43:05.725Z,54.5
2022-08-11T04:44:06.782Z,54.6
2022-08-11T04:45:05.750Z,54.5
2022-08-11T04:46:05.699Z,54.3
2022-08-11T04:47:05.750Z,53.9
2022-08-11T04:48:05.758Z,54.2
2022-08-11T04:49:05.770Z,54.7
2022-08-11T04:50:05.693Z,54.2
2022-08-11T04:51:16.917Z,54
2022-08-11T04:52:05.804Z,53.8
2022-08-11T04:53:05.697Z,54.3
2022-08-11T04:54:05.817Z,55.3
2022-08-11T04:55:05.756Z,54.7
2022-08-11T04:56:05.690Z,54.5
2022-08-11T04:57:05.727Z,54.3
2022-08-11T04:58:05.701Z,54.3
2022-08-11T04:59:05.732Z,54.2
2022-08-11T05:00:05.704Z,54.1
2022-08-11T05:01:05.764Z,53.6
2022-08-11T05:02:05.791Z,53.1
2022-08-11T05:03:05.752Z,53
2022-08-11T05:04:05.717Z,52.3
2022-08-11T05:05:05.704Z,52.8
2022-08-11T05:06:05.783Z,52.6
2022-08-11T05:07:05.795Z,52.9
2022-08-11T05:08:05.797Z,52.5
2022-08-11T05:09:05.790Z,52.5
2022-08-11T05:10:05.697Z,52.2
2022-08-11T05:11:05.699Z,51.8
2022-08-11T05:12:05.703Z,52
2022-08-11T05:13:05.718Z,52.2
2022-08-11T05:14:05.688Z,51.8
2022-08-11T05:15:05.698Z,51.9
2022-08-11T05:16:05.846Z,51.6
2022-08-11T05:17:05.761Z,51.2
2022-08-11T05:18:05.751Z,51.2
2022-08-11T05:19:05.862Z,49.9
2022-08-11T05:20:05.770Z,51
2022-08-11T05:21:05.773Z,50.1
2022-08-11T05:22:05.715Z,50.4
2022-08-11T05:23:05.801Z,50.5
2022-08-11T05:24:05.793Z,50.4
2022-08-11T05:25:05.903Z,51.4
2022-08-11T05:26:44.641Z,50.4
2022-08-11T05:27:09.942Z,50.1
2022-08-11T05:28:05.702Z,50.7
2022-08-11T05:29:19.311Z,50.2
2022-08-11T05:30:05.817Z,50.2
2022-08-11T05:31:05.730Z,49.5
2022-08-11T05:32:05.807Z,49.9
2022-08-11T05:33:05.722Z,50.2
2022-08-11T05:34:05.757Z,50
2022-08-11T05:35:05.759Z,49.4
2022-08-11T05:36:05.767Z,49.5
2022-08-11T05:37:25.075Z,49.3
2022-08-11T05:38:05.781Z,49.2
2022-08-11T05:39:05.782Z,49.7
2022-08-11T05:40:05.903Z,50.2
2022-08-11T05:41:05.692Z,49.8
2022-08-11T05:42:05.710Z,49.7
2022-08-11T05:43:05.807Z,49.7
2022-08-11T05:44:19.983Z,49.2
2022-08-11T05:45:05.707Z,49
2022-08-11T05:46:09.059Z,49.1
2022-08-11T05:47:05.732Z,48.9
2022-08-11T05:48:05.740Z,48.9
2022-08-11T05:49:05.762Z,48.7
2022-08-11T05:50:05.750Z,49.3
2022-08-11T05:51:10.468Z,48.8
2022-08-11T05:52:12.878Z,48.8
2022-08-11T05:53:09.193Z,48.8
2022-08-11T05:54:05.704Z,48.8
2022-08-11T05:55:06.391Z,49.2
2022-08-11T05:56:05.722Z,48.8
2022-08-11T05:57:05.706Z,48.6
2022-08-11T05:58:05.765Z,48.8
2022-08-11T05:59:05.813Z,48.8
2022-08-11T06:00:05.726Z,48.8
2022-08-11T06:01:05.772Z,49
2022-08-11T06:02:05.762Z,48.6
2022-08-11T06:03:05.725Z,48.2
2022-08-11T06:04:05.712Z,48.3
2022-08-11T06:05:05.842Z,48.1
2022-08-11T06:06:05.757Z,48.2
2022-08-11T06:07:05.754Z,48.3
2022-08-11T06:08:05.720Z,48.9
2022-08-11T06:09:05.683Z,48.2
2022-08-11T06:10:05.782Z,48.2
2022-08-11T06:11:05.779Z,48.5
2022-08-11T06:12:05.799Z,48
2022-08-11T06:13:05.794Z,47.8
2022-08-11T06:14:05.785Z,48.1
2022-08-11T06:15:05.841Z,48.3
2022-08-11T06:16:07.165Z,47.9
2022-08-11T06:17:05.821Z,48
2022-08-11T06:18:05.726Z,47.5
2022-08-11T06:19:05.797Z,47.6
2022-08-11T06:20:07.414Z,46.9
2022-08-11T06:21:05.783Z,47.7
2022-08-11T06:22:06.060Z,46.6
2022-08-11T06:23:05.723Z,46.7
2022-08-11T06:24:05.723Z,46.5
2022-08-11T06:25:05.716Z,46.3
2022-08-11T06:26:05.794Z,46
2022-08-11T06:27:13.807Z,46
2022-08-11T06:28:05.721Z,45.6
2022-08-11T06:29:05.731Z,46.3
2022-08-11T06:30:05.704Z,46.4
2022-08-11T06:31:05.722Z,46.8
2022-08-11T06:32:05.767Z,46.4
2022-08-11T06:33:06.607Z,45.9
2022-08-11T06:34:05.732Z,45.9
2022-08-11T06:35:05.730Z,46.4
2022-08-11T06:36:05.717Z,46.8
2022-08-11T06:37:05.689Z,46.5
2022-08-11T06:38:05.714Z,46.2
2022-08-11T06:39:05.709Z,45.8
2022-08-11T06:40:05.813Z,45.4
2022-08-11T06:41:05.739Z,44.8
2022-08-11T06:42:05.747Z,44.9
2022-08-11T06:43:05.734Z,45.1
2022-08-11T06:44:05.695Z,44.9
2022-08-11T06:45:05.811Z,44.6
2022-08-11T06:46:05.882Z,44.8
2022-08-11T06:47:05.815Z,44.6
2022-08-11T06:48:05.739Z,44.9
2022-08-11T06:49:05.720Z,45.5
2022-08-11T06:50:05.719Z,45.1
2022-08-11T06:51:05.701Z,45.2
2022-08-11T06:52:05.741Z,44.7
2022-08-11T06:53:05.749Z,45
2022-08-11T06:54:06.033Z,45.3
2022-08-11T06:55:05.723Z,45.2
2022-08-11T06:56:05.728Z,44.8
2022-08-11T06:57:28.971Z,45
2022-08-11T06:58:05.699Z,44.9
2022-08-11T06:59:05.852Z,44.8
2022-08-11T07:00:05.725Z,44.6
2022-08-11T07:01:05.878Z,44.4
2022-08-11T07:02:05.744Z,43.9
2022-08-11T07:03:05.832Z,43.6
2022-08-11T07:04:05.820Z,43.6
2022-08-11T07:05:05.727Z,43.4
2022-08-11T07:06:05.823Z,43.1
2022-08-11T07:07:05.747Z,42.7
2022-08-11T07:08:35.259Z,43.2
2022-08-11T07:09:05.714Z,43.9
2022-08-11T07:10:05.752Z,44.2
2022-08-11T07:11:05.757Z,43.6
2022-08-11T07:12:05.700Z,42.9
2022-08-11T07:13:05.878Z,43
2022-08-11T07:14:05.736Z,42.5
2022-08-11T07:15:05.887Z,42.5
2022-08-11T07:16:13.048Z,42.7
2022-08-11T07:17:05.809Z,42.4
2022-08-11T07:18:05.807Z,42.7
2022-08-11T07:19:05.808Z,42.8
2022-08-11T07:20:05.736Z,42.7
2022-08-11T07:21:05.827Z,42.4
2022-08-11T07:22:05.820Z,42.2
2022-08-11T07:23:05.835Z,41.5
2022-08-11T07:24:05.841Z,41.6
2022-08-11T07:25:05.746Z,41.7
2022-08-11T07:26:05.751Z,41.3
2022-08-11T07:27:05.770Z,41.5
2022-08-11T07:28:05.750Z,41.5
2022-08-11T07:29:05.879Z,41.4
2022-08-11T07:30:05.777Z,41.1
2022-08-11T07:31:05.726Z,40.8
2022-08-11T07:32:05.763Z,41.2
2022-08-11T07:33:05.814Z,41.5
2022-08-11T07:34:10.986Z,41.8
2022-08-11T07:35:05.835Z,41.7
2022-08-11T07:36:05.821Z,41.2
2022-08-11T07:37:05.817Z,40.7
2022-08-11T07:38:05.793Z,40.7
2022-08-11T07:39:05.837Z,40.2
2022-08-11T07:40:05.737Z,40.2
2022-08-11T07:41:05.861Z,40.3
2022-08-11T07:42:05.711Z,40.3
2022-08-11T07:43:05.811Z,40.3
2022-08-11T07:44:05.728Z,40.5
2022-08-11T07:45:05.773Z,40.2
2022-08-11T07:46:05.781Z,40.3
2022-08-11T07:47:05.800Z,39.9
2022-08-11T07:48:05.794Z,40.5
2022-08-11T07:49:05.794Z,40.5
2022-08-11T07:50:05.912Z,41
2022-08-11T07:51:05.824Z,41.5
2022-08-11T07:52:05.815Z,40.8
2022-08-11T07:53:05.830Z,41.3
2022-08-11T07:54:16.389Z,41.5
2022-08-11T07:55:05.808Z,40.7
2022-08-11T07:56:05.710Z,39.9
2022-08-11T07:57:09.036Z,39.6
2022-08-11T07:58:15.994Z,40
2022-08-11T07:59:08.308Z,39.9
2022-08-11T08:00:05.751Z,40
2022-08-11T08:01:10.658Z,40.7
2022-08-11T08:02:05.871Z,39.5
2022-08-11T08:03:05.738Z,39.5
2022-08-11T08:04:05.900Z,40.2
2022-08-11T08:05:05.843Z,40.4
2022-08-11T08:06:05.810Z,40
2022-08-11T08:07:05.737Z,39.9
2022-08-11T08:08:05.723Z,39
2022-08-11T08:09:05.724Z,38.1
2022-08-11T08:10:05.729Z,38.2
2022-08-11T08:11:05.840Z,38.8
2022-08-11T08:12:05.851Z,40
2022-08-11T08:13:05.850Z,39.1
2022-08-11T08:14:05.749Z,39.1
2022-08-11T08:15:05.760Z,38.5
2022-08-11T08:16:05.863Z,39.4
2022-08-11T08:17:05.798Z,39.1
2022-08-11T08:18:09.138Z,39.4
2022-08-11T08:19:05.783Z,38.9
2022-08-11T08:20:05.774Z,38.5
2022-08-11T08:21:05.872Z,38.3
2022-08-11T08:22:11.005Z,37.7
2022-08-11T08:23:05.839Z,37.5
2022-08-11T08:24:05.819Z,38.2
2022-08-11T08:25:05.819Z,38.1
2022-08-11T08:26:05.848Z,37.4
2022-08-11T08:27:05.842Z,37.1
2022-08-11T08:28:05.744Z,37.1
2022-08-11T08:29:05.773Z,36.3
2022-08-11T08:30:05.780Z,36.1
2022-08-11T08:31:05.763Z,35.8
2022-08-11T08:32:05.881Z,35.8
2022-08-11T08:33:05.881Z,35.7
2022-08-11T08:34:05.771Z,34.8
2022-08-11T08:35:05.770Z,35.3
2022-08-11T08:36:05.791Z,35.4
2022-08-11T08:37:15.902Z,36.1
2022-08-11T08:38:05.809Z,34.8
2022-08-11T08:39:05.912Z,34.8
2022-08-11T08:40:05.817Z,35.7
2022-08-11T08:41:05.832Z,35.7
2022-08-11T08:42:05.827Z,36.3
2022-08-11T08:43:05.733Z,36.2
2022-08-11T08:44:37.946Z,35.9
2022-08-11T08:45:05.747Z,35
2022-08-11T08:46:05.857Z,34.8
2022-08-11T08:47:05.755Z,35.4
2022-08-11T08:48:05.761Z,34.8
2022-08-11T08:49:05.772Z,35
2022-08-11T08:50:05.703Z,34.6
2022-08-11T08:51:08.085Z,35.2
2022-08-11T08:52:42.653Z,34.6
2022-08-11T08:53:05.897Z,34.2
2022-08-11T08:54:05.810Z,34.8
2022-08-11T08:55:05.814Z,34.4
2022-08-11T08:56:05.819Z,34.2
2022-08-11T08:57:05.823Z,34.6
2022-08-11T08:58:05.938Z,35
2022-08-11T08:59:05.834Z,35.2
2022-08-11T09:00:05.847Z,34.4
2022-08-11T09:01:05.827Z,34.8
2022-08-11T09:02:05.757Z,34.2
2022-08-11T09:03:29.483Z,34.8
2022-08-11T09:04:11.432Z,33.9
2022-08-11T09:05:05.782Z,34.2
2022-08-11T09:06:05.787Z,34.4
2022-08-11T09:07:05.882Z,33.7
2022-08-11T09:08:05.792Z,33
2022-08-11T09:09:05.797Z,33
2022-08-11T09:10:05.797Z,33.4
2022-08-11T09:11:09.421Z,32.7
2022-08-11T09:12:05.832Z,32.9
2022-08-11T09:13:05.825Z,32.5
2022-08-11T09:14:08.377Z,32.3
2022-08-11T09:15:05.877Z,32
2022-08-11T09:16:05.840Z,31.8
2022-08-11T09:17:05.872Z,31.6
2022-08-11T09:18:05.756Z,32.3
2022-08-11T09:19:05.755Z,32.1
2022-08-11T09:20:05.770Z,31.6
2022-08-11T09:21:05.886Z,31.7
2022-08-11T09:22:05.886Z,31.8
2022-08-11T09:24:07.711Z,31.9
2022-08-11T09:25:05.803Z,31.8
2022-08-11T09:26:05.724Z,31.5
2022-08-11T09:27:05.754Z,31.9
2022-08-11T09:28:05.916Z,31.6
2022-08-11T09:29:05.765Z,32.2
2022-08-11T09:31:05.837Z,32
2022-08-11T09:32:05.745Z,31.9
2022-08-11T09:33:05.775Z,30.9
2022-08-11T09:34:05.756Z,30.6
2022-08-11T09:35:05.868Z,31.7
2022-08-11T09:36:05.765Z,31.7
2022-08-11T09:37:05.882Z,31.2
2022-08-11T09:38:05.891Z,30.7
2022-08-11T09:39:05.815Z,31.4
2022-08-11T09:40:05.800Z,30.8
2022-08-11T09:41:05.754Z,30.6
2022-08-11T09:42:05.837Z,31.1
2022-08-11T09:43:05.821Z,30.5
2022-08-11T09:44:05.839Z,30.7
2022-08-11T09:45:05.829Z,30.6
2022-08-11T09:46:05.842Z,31
2022-08-11T09:47:05.766Z,31
2022-08-11T09:48:05.849Z,31.5
2022-08-11T09:49:06.027Z,31.1
2022-08-11T09:50:05.858Z,31.5
2022-08-11T09:51:05.879Z,31.2
2022-08-11T09:52:05.830Z,31.3
2022-08-11T09:53:37.238Z,30.6
2022-08-11T09:54:05.771Z,30.4
2022-08-11T09:55:05.788Z,30.6
2022-08-11T09:56:05.852Z,30.4
2022-08-11T09:57:05.803Z,30.3
2022-08-11T09:58:05.919Z,30.6
2022-08-11T09:59:05.811Z,30.5
2022-08-11T10:00:12.672Z,31.2
2022-08-11T10:01:05.897Z,31.1
2022-08-11T10:02:05.827Z,30.7
2022-08-11T10:03:05.947Z,30.2
2022-08-11T10:04:05.858Z,29.8
2022-08-11T10:05:05.764Z,30
2022-08-11T10:06:08.018Z,30.2
2022-08-11T10:07:06.154Z,30.1
2022-08-11T10:08:05.799Z,30.9
2022-08-11T10:09:05.794Z,31.1
2022-08-11T10:10:05.885Z,30.2
2022-08-11T10:11:05.793Z,30.3
2022-08-11T10:12:05.925Z,30.1
2022-08-11T10:13:05.806Z,30.3
2022-08-11T10:14:33.778Z,30.6
2022-08-11T10:15:05.821Z,29.4
2022-08-11T10:16:15.551Z,29.9
2022-08-11T10:17:05.941Z,29.6
2022-08-11T10:18:05.745Z,30.1
2022-08-11T10:19:05.846Z,29.9
2022-08-11T10:20:06.229Z,30
2022-08-11T10:21:05.789Z,29.5
2022-08-11T10:22:05.760Z,29.7
2022-08-11T10:23:05.757Z,30
2022-08-11T10:24:06.196Z,30.2
2022-08-11T10:25:05.747Z,30
2022-08-11T10:26:05.798Z,30.1
2022-08-11T10:27:05.784Z,29.5
2022-08-11T10:28:17.691Z,29.8
2022-08-11T10:29:13.173Z,29.8
2022-08-11T10:30:05.766Z,29.8
2022-08-11T10:31:05.868Z,29.6
2022-08-11T10:32:05.825Z,29.5
2022-08-11T10:33:07.366Z,28.9
2022-08-11T10:34:05.778Z,29
2022-08-11T10:35:05.774Z,28.9
2022-08-11T10:36:05.847Z,28.8
2022-08-11T10:37:05.861Z,29.2
2022-08-11T10:38:09.678Z,29
2022-08-11T10:39:05.862Z,28.8
2022-08-11T10:40:05.863Z,28.7
2022-08-11T10:41:05.773Z,27.9
2022-08-11T10:42:09.566Z,28.8
2022-08-11T10:43:05.779Z,28.8
2022-08-11T10:44:05.809Z,28.6
2022-08-11T10:45:05.901Z,29.2
2022-08-11T10:46:05.809Z,29.2
2022-08-11T10:47:05.814Z,29.1
2022-08-11T10:48:05.765Z,29.2
2022-08-11T10:49:05.774Z,29.2
2022-08-11T10:50:05.841Z,30
2022-08-11T10:51:05.840Z,27.9
2022-08-11T10:52:05.951Z,28.7
2022-08-11T10:53:05.847Z,29.3
2022-08-11T10:54:05.869Z,29.5
2022-08-11T10:55:05.829Z,29.2
2022-08-11T10:56:06.006Z,28.5
2022-08-11T10:57:05.883Z,29.1
2022-08-11T10:58:05.875Z,29.3
2022-08-11T10:59:05.883Z,29.4
2022-08-11T11:00:05.805Z,29.2
2022-08-11T11:01:05.841Z,28.7
2022-08-11T11:02:05.775Z,28.3
2022-08-11T11:03:23.669Z,28
2022-08-11T11:04:05.815Z,28.4
2022-08-11T11:05:05.937Z,28.7
2022-08-11T11:06:28.063Z,29
2022-08-11T11:07:05.788Z,28.5
2022-08-11T11:08:05.818Z,28.7
2022-08-11T11:09:05.783Z,28.2
2022-08-11T11:10:05.933Z,28
2022-08-11T11:11:06.019Z,28.1
2022-08-11T11:12:06.007Z,28.5
2022-08-11T11:13:05.976Z,27.9
2022-08-11T11:14:06.013Z,28.9
2022-08-11T11:15:06.976Z,28.2
2022-08-11T11:16:06.198Z,27.9
2022-08-11T11:17:05.804Z,28.6
2022-08-11T11:18:05.812Z,27.4
2022-08-11T11:19:05.899Z,26.6
2022-08-11T11:20:05.929Z,27.9
2022-08-11T11:21:05.788Z,27.1
2022-08-11T11:22:05.837Z,26.9
2022-08-11T11:23:05.845Z,27.2
2022-08-11T11:24:05.871Z,27.7
2022-08-11T11:25:05.855Z,27.4
2022-08-11T11:26:05.966Z,26.8
2022-08-11T11:27:05.965Z,26.5
2022-08-11T11:28:05.808Z,27
2022-08-11T11:29:05.786Z,26.9
2022-08-11T11:30:05.795Z,26.2
2022-08-11T11:31:05.783Z,27.1
2022-08-11T11:32:05.889Z,26.9
2022-08-11T11:33:05.905Z,26.8
2022-08-11T11:34:06.858Z,26.4
2022-08-11T11:35:05.805Z,26.5
2022-08-11T11:36:05.785Z,26.9
2022-08-11T11:37:05.836Z,27.3
2022-08-11T11:38:07.517Z,26.7
2022-08-11T11:39:05.849Z,26.2
2022-08-11T11:40:05.844Z,26.1
2022-08-11T11:41:05.875Z,26.8
2022-08-11T11:42:05.790Z,27
2022-08-11T11:43:05.859Z,26.1
2022-08-11T11:44:05.869Z,26
2022-08-11T11:45:05.880Z,25.9
2022-08-11T11:46:05.886Z,26.4
2022-08-11T11:47:05.988Z,26.3
2022-08-11T11:48:06.002Z,25.9
2022-08-11T11:49:05.830Z,26.1
2022-08-11T11:50:05.820Z,26.1
2022-08-11T11:51:05.829Z,26.2
2022-08-11T11:52:05.823Z,26.1
2022-08-11T11:53:05.866Z,25.8
2022-08-11T11:54:05.917Z,25.3
2022-08-11T11:55:05.872Z,25.4
2022-08-11T11:56:05.857Z,25.5
2022-08-11T11:57:05.860Z,24.5
2022-08-11T11:58:05.885Z,25.6
2022-08-11T11:59:05.871Z,25
2022-08-11T12:00:05.884Z,25
2022-08-11T12:01:05.915Z,24.9
2022-08-11T12:02:11.983Z,24.4
2022-08-11T12:03:05.904Z,24.3
2022-08-11T12:04:05.793Z,23.6
2022-08-11T12:05:05.799Z,23.7
2022-08-11T12:06:05.804Z,23.9
2022-08-11T12:07:05.813Z,23.2
2022-08-11T12:08:12.778Z,23.5
2022-08-11T12:09:05.935Z,23.2
2022-08-11T12:10:05.832Z,23.1
2022-08-11T12:11:05.798Z,23.3
2022-08-11T12:12:05.845Z,23.3
2022-08-11T12:13:05.857Z,22.3
2022-08-11T12:14:10.351Z,22.5
2022-08-11T12:15:05.969Z,22.8
2022-08-11T12:16:35.015Z,22.6
2022-08-11T12:17:05.806Z,22.4
2022-08-11T12:18:05.898Z,22
2022-08-11T12:19:05.912Z,21.8
2022-08-11T12:20:05.995Z,22.3
2022-08-11T12:21:05.904Z,21.9
2022-08-11T12:22:06.020Z,21.9
2022-08-11T12:23:05.920Z,21.6
2022-08-11T12:24:05.972Z,22.1
2022-08-11T12:25:05.838Z,21.9
2022-08-11T12:26:25.783Z,20.9
2022-08-11T12:27:16.252Z,21.7
2022-08-11T12:28:05.838Z,21.3
2022-08-11T12:29:05.913Z,21.8
2022-08-11T12:30:06.048Z,21.7
2022-08-11T12:31:05.829Z,21.3
2022-08-11T12:32:05.808Z,21.3
2022-08-11T12:33:05.810Z,21.4
2022-08-11T12:34:05.887Z,21.1
2022-08-11T12:35:05.900Z,21.4
2022-08-11T12:36:06.005Z,21.7
2022-08-11T12:37:06.022Z,21.2
2022-08-11T12:38:10.849Z,21.3
2022-08-11T12:39:23.410Z,21.4
2022-08-11T12:40:16.680Z,22.2
2022-08-11T12:41:15.602Z,20.7
2022-08-11T12:42:05.956Z,21.3
2022-08-11T12:43:08.290Z,22.3
2022-08-11T12:44:05.956Z,20.8
2022-08-11T12:45:05.805Z,21.1
2022-08-11T12:46:05.863Z,21.2
2022-08-11T12:47:05.877Z,21.7
2022-08-11T12:48:42.575Z,21.6
2022-08-11T12:49:05.893Z,21.1
2022-08-11T12:50:05.859Z,21.3
2022-08-11T12:51:06.002Z,21.4
2022-08-11T12:52:12.859Z,21.3
2022-08-11T12:53:05.904Z,20.5
2022-08-11T12:54:05.805Z,20.8
2022-08-11T12:55:08.484Z,21.7
2022-08-11T12:56:07.651Z,21.4
2022-08-11T12:57:05.935Z,20.9
2022-08-11T12:58:05.920Z,21.2
2022-08-11T12:59:05.829Z,21.1
2022-08-11T13:00:05.865Z,21.3
2022-08-11T13:01:05.901Z,21.2
2022-08-11T13:02:05.868Z,21.1
2022-08-11T13:03:05.874Z,20.5
2022-08-11T13:04:05.861Z,20.5
2022-08-11T13:05:05.903Z,21
2022-08-11T13:06:05.844Z,21.1
2022-08-11T13:07:05.922Z,21.3
2022-08-11T13:08:05.907Z,20.7
2022-08-11T13:09:05.905Z,22.1
2022-08-11T13:10:05.874Z,22.1
2022-08-11T13:11:05.949Z,22.1
2022-08-11T13:12:05.912Z,20.8
2022-08-11T13:13:05.819Z,21.3
2022-08-11T13:14:05.857Z,20.4
2022-08-11T13:15:05.833Z,21.6
2022-08-11T13:16:05.837Z,20.9
2022-08-11T13:17:05.840Z,21.9
2022-08-11T13:18:05.954Z,21.1
2022-08-11T13:19:05.912Z,20.6
2022-08-11T13:20:05.932Z,20.2
2022-08-11T13:21:05.821Z,20
2022-08-11T13:22:05.826Z,19.3
2022-08-11T13:23:05.851Z,19.4
2022-08-11T13:24:05.824Z,19.1
2022-08-11T13:25:05.951Z,19
2022-08-11T13:26:05.935Z,19